sensor_id;sensor_type;location;lat;lon;timestamp;pressure;altitude;pressure_sealevel;temperature;humidity
42727;BME280;28372;56.832;60.658;2023-02-19T00:01:47;97575.97;;;-11.45;55.85
42727;BME280;28372;56.832;60.658;2023-02-19T00:04:17;97572.88;;;-11.42;55.59
42727;BME280;28372;56.832;60.658;2023-02-19T00:06:47;97572.50;;;-11.33;55.20
42727;BME280;28372;56.832;60.658;2023-02-19T00:09:16;97569.22;;;-11.29;54.62
42727;BME280;28372;56.832;60.658;2023-02-19T00:11:45;97573.25;;;-11.21;54.54
42727;BME280;28372;56.832;60.658;2023-02-19T00:14:16;97561.78;;;-11.20;53.84
42727;BME280;28372;56.832;60.658;2023-02-19T00:16:44;97568.59;;;-11.19;52.96
42727;BME280;28372;56.832;60.658;2023-02-19T00:19:15;97569.47;;;-11.13;53.43
42727;BME280;28372;56.832;60.658;2023-02-19T00:21:43;97570.50;;;-11.14;53.00
42727;BME280;28372;56.832;60.658;2023-02-19T00:24:12;97570.09;;;-11.06;53.04
42727;BME280;28372;56.832;60.658;2023-02-19T00:26:41;97561.00;;;-11.04;53.20
42727;BME280;28372;56.832;60.658;2023-02-19T00:29:14;97555.38;;;-10.95;52.80
42727;BME280;28372;56.832;60.658;2023-02-19T00:31:43;97550.22;;;-10.90;52.70
42727;BME280;28372;56.832;60.658;2023-02-19T00:34:12;97549.28;;;-10.84;52.82
42727;BME280;28372;56.832;60.658;2023-02-19T00:36:41;97544.59;;;-10.82;52.22
42727;BME280;28372;56.832;60.658;2023-02-19T00:39:12;97554.41;;;-10.72;51.47
42727;BME280;28372;56.832;60.658;2023-02-19T00:41:42;97549.09;;;-10.77;51.50
42727;BME280;28372;56.832;60.658;2023-02-19T00:44:10;97542.84;;;-10.76;50.73
42727;BME280;28372;56.832;60.658;2023-02-19T00:46:44;97539.53;;;-10.72;51.53
42727;BME280;28372;56.832;60.658;2023-02-19T00:49:16;97536.38;;;-10.74;51.39
42727;BME280;28372;56.832;60.658;2023-02-19T00:51:44;97535.03;;;-10.76;52.01
42727;BME280;28372;56.832;60.658;2023-02-19T00:54:12;97535.81;;;-10.76;51.85
42727;BME280;28372;56.832;60.658;2023-02-19T00:56:40;97538.25;;;-10.69;52.40
42727;BME280;28372;56.832;60.658;2023-02-19T00:59:08;97533.50;;;-10.72;52.08
42727;BME280;28372;56.832;60.658;2023-02-19T01:01:37;97532.66;;;-10.78;52.93
42727;BME280;28372;56.832;60.658;2023-02-19T01:04:05;97528.53;;;-10.74;54.24
42727;BME280;28372;56.832;60.658;2023-02-19T01:06:33;97526.44;;;-10.72;55.33
42727;BME280;28372;56.832;60.658;2023-02-19T01:09:03;97536.00;;;-10.60;55.15
42727;BME280;28372;56.832;60.658;2023-02-19T01:11:31;97534.22;;;-10.60;54.57
42727;BME280;28372;56.832;60.658;2023-02-19T01:14:00;97536.66;;;-10.53;54.03
42727;BME280;28372;56.832;60.658;2023-02-19T01:16:28;97535.38;;;-10.51;53.77
42727;BME280;28372;56.832;60.658;2023-02-19T01:18:56;97534.41;;;-10.44;54.14
42727;BME280;28372;56.832;60.658;2023-02-19T01:21:25;97537.56;;;-10.42;54.41
42727;BME280;28372;56.832;60.658;2023-02-19T01:23:54;97525.56;;;-10.43;53.80
42727;BME280;28372;56.832;60.658;2023-02-19T01:26:27;97536.06;;;-10.38;53.05
42727;BME280;28372;56.832;60.658;2023-02-19T01:28:57;97521.41;;;-10.39;52.18
42727;BME280;28372;56.832;60.658;2023-02-19T01:31:25;97528.78;;;-10.36;51.42
42727;BME280;28372;56.832;60.658;2023-02-19T01:34:00;97522.25;;;-10.34;50.68
42727;BME280;28372;56.832;60.658;2023-02-19T01:36:29;97528.53;;;-10.29;50.09
42727;BME280;28372;56.832;60.658;2023-02-19T01:38:59;97523.38;;;-10.24;50.40
42727;BME280;28372;56.832;60.658;2023-02-19T01:41:32;97519.50;;;-10.22;50.40
42727;BME280;28372;56.832;60.658;2023-02-19T01:46:43;97517.41;;;-10.20;50.12
42727;BME280;28372;56.832;60.658;2023-02-19T01:49:21;97519.56;;;-10.17;51.35
42727;BME280;28372;56.832;60.658;2023-02-19T01:52:11;97510.66;;;-10.16;51.88
42727;BME280;28372;56.832;60.658;2023-02-19T01:54:43;97524.84;;;-10.11;52.37
42727;BME280;28372;56.832;60.658;2023-02-19T01:57:19;97517.31;;;-10.08;52.75
42727;BME280;28372;56.832;60.658;2023-02-19T01:59:50;97521.25;;;-10.05;52.55
42727;BME280;28372;56.832;60.658;2023-02-19T02:02:21;97515.19;;;-10.11;53.40
42727;BME280;28372;56.832;60.658;2023-02-19T02:04:51;97522.78;;;-10.09;53.69
42727;BME280;28372;56.832;60.658;2023-02-19T02:07:19;97527.00;;;-10.08;53.62
42727;BME280;28372;56.832;60.658;2023-02-19T02:10:06;97531.97;;;-10.07;53.78
42727;BME280;28372;56.832;60.658;2023-02-19T02:12:51;97532.69;;;-10.11;52.80
42727;BME280;28372;56.832;60.658;2023-02-19T02:15:19;97532.94;;;-10.13;53.92
42727;BME280;28372;56.832;60.658;2023-02-19T02:26:41;97543.22;;;-10.06;55.06
42727;BME280;28372;56.832;60.658;2023-02-19T02:29:50;97547.72;;;-10.02;54.29
42727;BME280;28372;56.832;60.658;2023-02-19T02:32:30;97544.00;;;-10.06;53.94
42727;BME280;28372;56.832;60.658;2023-02-19T02:35:07;97542.47;;;-10.02;54.95
42727;BME280;28372;56.832;60.658;2023-02-19T02:37:38;97543.72;;;-10.09;55.39
42727;BME280;28372;56.832;60.658;2023-02-19T02:40:09;97543.47;;;-10.08;55.89
42727;BME280;28372;56.832;60.658;2023-02-19T02:42:39;97545.22;;;-10.13;54.67
42727;BME280;28372;56.832;60.658;2023-02-19T02:48:17;97535.31;;;-10.11;55.44
42727;BME280;28372;56.832;60.658;2023-02-19T02:53:47;97542.63;;;-10.13;54.62
42727;BME280;28372;56.832;60.658;2023-02-19T02:56:35;97543.22;;;-10.28;53.84
42727;BME280;28372;56.832;60.658;2023-02-19T02:59:06;97541.88;;;-10.53;50.53
42727;BME280;28372;56.832;60.658;2023-02-19T03:04:29;97554.97;;;-10.53;50.68
42727;BME280;28372;56.832;60.658;2023-02-19T03:07:07;97560.19;;;-10.53;50.39
42727;BME280;28372;56.832;60.658;2023-02-19T03:09:40;97553.84;;;-10.57;50.53
42727;BME280;28372;56.832;60.658;2023-02-19T03:12:14;97557.66;;;-10.65;52.18
42727;BME280;28372;56.832;60.658;2023-02-19T03:15:08;97544.97;;;-10.56;52.91
42727;BME280;28372;56.832;60.658;2023-02-19T03:17:59;97550.91;;;-10.61;54.62
42727;BME280;28372;56.832;60.658;2023-02-19T03:20:50;97552.44;;;-10.65;55.89
42727;BME280;28372;56.832;60.658;2023-02-19T03:23:21;97551.88;;;-10.67;57.03
42727;BME280;28372;56.832;60.658;2023-02-19T03:26:11;97554.78;;;-10.63;56.46
42727;BME280;28372;56.832;60.658;2023-02-19T03:28:50;97543.56;;;-10.64;55.98
42727;BME280;28372;56.832;60.658;2023-02-19T03:31:42;97552.19;;;-10.80;53.46
42727;BME280;28372;56.832;60.658;2023-02-19T03:34:15;97523.25;;;-10.96;53.91
42727;BME280;28372;56.832;60.658;2023-02-19T03:36:47;97552.59;;;-10.72;53.99
42727;BME280;28372;56.832;60.658;2023-02-19T03:39:19;97552.03;;;-10.57;54.96
42727;BME280;28372;56.832;60.658;2023-02-19T03:41:59;97544.41;;;-10.58;54.92
42727;BME280;28372;56.832;60.658;2023-02-19T03:47:25;97547.53;;;-10.61;55.23
42727;BME280;28372;56.832;60.658;2023-02-19T03:50:20;97552.19;;;-10.63;54.87
42727;BME280;28372;56.832;60.658;2023-02-19T03:53:00;97545.84;;;-10.68;54.53
42727;BME280;28372;56.832;60.658;2023-02-19T03:58:39;97555.81;;;-10.47;55.00
42727;BME280;28372;56.832;60.658;2023-02-19T04:03:50;97553.63;;;-10.34;54.13
42727;BME280;28372;56.832;60.658;2023-02-19T04:06:27;97557.31;;;-10.29;53.11
42727;BME280;28372;56.832;60.658;2023-02-19T04:09:02;97562.84;;;-10.26;52.52
42727;BME280;28372;56.832;60.658;2023-02-19T04:11:35;97564.97;;;-10.23;51.34
42727;BME280;28372;56.832;60.658;2023-02-19T04:14:18;97555.38;;;-10.17;52.33
42727;BME280;28372;56.832;60.658;2023-02-19T04:16:52;97562.50;;;-10.12;52.09
42727;BME280;28372;56.832;60.658;2023-02-19T04:19:24;97569.13;;;-10.05;52.58
42727;BME280;28372;56.832;60.658;2023-02-19T04:21:52;97566.84;;;-10.01;53.04
42727;BME280;28372;56.832;60.658;2023-02-19T04:24:28;97561.19;;;-9.93;53.67
42727;BME280;28372;56.832;60.658;2023-02-19T04:26:58;97566.69;;;-9.89;53.76
42727;BME280;28372;56.832;60.658;2023-02-19T04:29:25;97569.91;;;-9.82;55.45
42727;BME280;28372;56.832;60.658;2023-02-19T04:31:53;97567.69;;;-9.73;56.25
42727;BME280;28372;56.832;60.658;2023-02-19T04:34:21;97565.91;;;-9.68;57.87
42727;BME280;28372;56.832;60.658;2023-02-19T04:36:48;97563.63;;;-9.59;59.18
42727;BME280;28372;56.832;60.658;2023-02-19T04:39:16;97560.56;;;-9.51;59.64
42727;BME280;28372;56.832;60.658;2023-02-19T04:41:43;97563.59;;;-9.37;59.76
42727;BME280;28372;56.832;60.658;2023-02-19T04:44:11;97565.28;;;-9.25;59.59
42727;BME280;28372;56.832;60.658;2023-02-19T04:46:40;97568.28;;;-9.11;58.95
42727;BME280;28372;56.832;60.658;2023-02-19T04:49:09;97562.34;;;-9.02;58.59
42727;BME280;28372;56.832;60.658;2023-02-19T04:51:38;97571.59;;;-8.89;57.72
42727;BME280;28372;56.832;60.658;2023-02-19T04:54:06;97563.56;;;-8.77;57.58
42727;BME280;28372;56.832;60.658;2023-02-19T04:56:34;97572.28;;;-8.66;56.86
42727;BME280;28372;56.832;60.658;2023-02-19T04:59:02;97573.94;;;-8.55;56.74
42727;BME280;28372;56.832;60.658;2023-02-19T05:01:29;97578.72;;;-8.41;56.05
42727;BME280;28372;56.832;60.658;2023-02-19T05:03:57;97575.88;;;-8.30;54.99
42727;BME280;28372;56.832;60.658;2023-02-19T05:06:25;97577.53;;;-8.18;55.00
42727;BME280;28372;56.832;60.658;2023-02-19T05:08:53;97563.09;;;-8.16;54.25
42727;BME280;28372;56.832;60.658;2023-02-19T05:11:21;97577.09;;;-8.00;53.34
42727;BME280;28372;56.832;60.658;2023-02-19T05:13:49;97573.19;;;-7.87;53.15
42727;BME280;28372;56.832;60.658;2023-02-19T05:16:17;97579.53;;;-7.78;52.56
42727;BME280;28372;56.832;60.658;2023-02-19T05:18:45;97582.44;;;-7.69;53.50
42727;BME280;28372;56.832;60.658;2023-02-19T05:21:14;97582.22;;;-7.62;53.60
42727;BME280;28372;56.832;60.658;2023-02-19T05:23:42;97585.94;;;-7.53;53.93
42727;BME280;28372;56.832;60.658;2023-02-19T05:26:13;97581.72;;;-7.44;53.82
42727;BME280;28372;56.832;60.658;2023-02-19T05:28:45;97582.28;;;-7.36;52.46
42727;BME280;28372;56.832;60.658;2023-02-19T05:31:13;97578.34;;;-7.29;51.99
42727;BME280;28372;56.832;60.658;2023-02-19T05:33:41;97585.47;;;-7.19;51.88
42727;BME280;28372;56.832;60.658;2023-02-19T05:36:11;97558.41;;;-7.25;52.42
42727;BME280;28372;56.832;60.658;2023-02-19T05:38:40;97580.75;;;-7.07;51.40
42727;BME280;28372;56.832;60.658;2023-02-19T05:41:16;97557.63;;;-7.10;51.71
42727;BME280;28372;56.832;60.658;2023-02-19T05:43:45;97571.28;;;-6.92;51.36
42727;BME280;28372;56.832;60.658;2023-02-19T05:46:15;97572.06;;;-6.76;51.15
42727;BME280;28372;56.832;60.658;2023-02-19T05:48:44;97568.94;;;-6.73;50.42
42727;BME280;28372;56.832;60.658;2023-02-19T05:51:14;97573.91;;;-6.66;50.00
42727;BME280;28372;56.832;60.658;2023-02-19T05:53:43;97573.38;;;-6.58;49.26
42727;BME280;28372;56.832;60.658;2023-02-19T05:56:32;97571.00;;;-6.49;50.34
42727;BME280;28372;56.832;60.658;2023-02-19T05:59:14;97569.41;;;-6.40;51.35
42727;BME280;28372;56.832;60.658;2023-02-19T06:01:42;97564.41;;;-6.37;50.53
42727;BME280;28372;56.832;60.658;2023-02-19T06:04:11;97571.22;;;-6.25;49.18
42727;BME280;28372;56.832;60.658;2023-02-19T06:06:39;97567.25;;;-6.17;48.83
42727;BME280;28372;56.832;60.658;2023-02-19T06:09:08;97565.94;;;-6.10;48.38
42727;BME280;28372;56.832;60.658;2023-02-19T06:11:36;97563.50;;;-5.96;48.29
42727;BME280;28372;56.832;60.658;2023-02-19T06:14:04;97571.31;;;-5.80;48.18
42727;BME280;28372;56.832;60.658;2023-02-19T06:16:32;97557.81;;;-5.69;46.29
42727;BME280;28372;56.832;60.658;2023-02-19T06:19:01;97555.38;;;-5.55;46.05
42727;BME280;28372;56.832;60.658;2023-02-19T06:21:32;97567.66;;;-5.35;44.38
42727;BME280;28372;56.832;60.658;2023-02-19T06:24:05;97561.97;;;-5.12;42.62
42727;BME280;28372;56.832;60.658;2023-02-19T06:26:33;97558.19;;;-4.96;43.01
42727;BME280;28372;56.832;60.658;2023-02-19T06:29:02;97563.25;;;-4.70;42.87
42727;BME280;28372;56.832;60.658;2023-02-19T06:31:30;97560.72;;;-4.51;41.28
42727;BME280;28372;56.832;60.658;2023-02-19T06:33:58;97565.69;;;-4.20;41.05
42727;BME280;28372;56.832;60.658;2023-02-19T06:36:26;97565.25;;;-4.03;41.10
42727;BME280;28372;56.832;60.658;2023-02-19T06:38:58;97568.59;;;-3.73;39.39
42727;BME280;28372;56.832;60.658;2023-02-19T06:41:26;97558.03;;;-3.35;36.78
42727;BME280;28372;56.832;60.658;2023-02-19T06:43:53;97553.31;;;-3.00;37.60
42727;BME280;28372;56.832;60.658;2023-02-19T06:46:21;97550.97;;;-2.69;37.22
42727;BME280;28372;56.832;60.658;2023-02-19T06:48:49;97551.53;;;-2.39;35.68
42727;BME280;28372;56.832;60.658;2023-02-19T06:51:18;97546.94;;;-2.05;35.33
42727;BME280;28372;56.832;60.658;2023-02-19T06:53:49;97553.81;;;-1.77;35.04
42727;BME280;28372;56.832;60.658;2023-02-19T06:58:57;97550.59;;;-1.37;34.59
42727;BME280;28372;56.832;60.658;2023-02-19T07:01:28;97542.63;;;-1.00;34.18
42727;BME280;28372;56.832;60.658;2023-02-19T07:03:57;97550.69;;;-0.60;33.72
42727;BME280;28372;56.832;60.658;2023-02-19T07:06:28;97548.38;;;-0.22;32.57
42727;BME280;28372;56.832;60.658;2023-02-19T07:08:57;97533.09;;;-0.07;33.11
42727;BME280;28372;56.832;60.658;2023-02-19T07:11:25;97539.47;;;0.32;33.16
42727;BME280;28372;56.832;60.658;2023-02-19T07:14:00;97547.50;;;0.76;30.81
42727;BME280;28372;56.832;60.658;2023-02-19T07:16:28;97533.56;;;1.23;30.25
42727;BME280;28372;56.832;60.658;2023-02-19T07:18:58;97527.00;;;1.76;28.68
42727;BME280;28372;56.832;60.658;2023-02-19T07:21:27;97530.06;;;1.96;29.43
42727;BME280;28372;56.832;60.658;2023-02-19T07:23:55;97527.31;;;2.13;28.90
42727;BME280;28372;56.832;60.658;2023-02-19T07:26:23;97531.44;;;2.32;29.09
42727;BME280;28372;56.832;60.658;2023-02-19T07:28:51;97523.97;;;2.46;27.92
42727;BME280;28372;56.832;60.658;2023-02-19T07:31:22;97526.25;;;2.56;29.13
42727;BME280;28372;56.832;60.658;2023-02-19T07:33:51;97526.78;;;2.71;27.70
42727;BME280;28372;56.832;60.658;2023-02-19T07:36:22;97526.72;;;2.80;26.80
42727;BME280;28372;56.832;60.658;2023-02-19T07:38:57;97521.50;;;2.83;26.59
42727;BME280;28372;56.832;60.658;2023-02-19T07:41:28;97519.94;;;2.82;26.88
42727;BME280;28372;56.832;60.658;2023-02-19T07:43:57;97521.72;;;2.78;26.85
42727;BME280;28372;56.832;60.658;2023-02-19T07:46:35;97526.91;;;2.74;26.58
42727;BME280;28372;56.832;60.658;2023-02-19T07:49:09;97517.88;;;2.67;26.94
42727;BME280;28372;56.832;60.658;2023-02-19T07:51:45;97524.72;;;2.55;25.47
42727;BME280;28372;56.832;60.658;2023-02-19T07:54:16;97516.56;;;2.52;26.33
42727;BME280;28372;56.832;60.658;2023-02-19T07:56:45;97508.72;;;2.47;27.56
42727;BME280;28372;56.832;60.658;2023-02-19T07:59:15;97526.97;;;2.45;26.18
42727;BME280;28372;56.832;60.658;2023-02-19T08:01:45;97516.75;;;2.17;25.29
42727;BME280;28372;56.832;60.658;2023-02-19T08:04:31;97505.13;;;1.92;26.06
42727;BME280;28372;56.832;60.658;2023-02-19T08:06:59;97511.38;;;1.96;26.75
42727;BME280;28372;56.832;60.658;2023-02-19T08:09:27;97513.13;;;1.92;26.58
42727;BME280;28372;56.832;60.658;2023-02-19T08:11:54;97511.56;;;1.91;26.37
42727;BME280;28372;56.832;60.658;2023-02-19T08:14:40;97504.88;;;1.76;26.16
42727;BME280;28372;56.832;60.658;2023-02-19T08:17:08;97503.81;;;1.68;26.69
42727;BME280;28372;56.832;60.658;2023-02-19T08:19:35;97505.09;;;1.62;26.39
42727;BME280;28372;56.832;60.658;2023-02-19T08:22:03;97500.59;;;1.45;26.22
42727;BME280;28372;56.832;60.658;2023-02-19T08:24:31;97491.22;;;1.30;26.74
42727;BME280;28372;56.832;60.658;2023-02-19T08:27:00;97499.72;;;1.14;26.43
42727;BME280;28372;56.832;60.658;2023-02-19T08:29:27;97509.44;;;1.10;26.55
42727;BME280;28372;56.832;60.658;2023-02-19T08:31:55;97513.84;;;0.97;26.91
42727;BME280;28372;56.832;60.658;2023-02-19T08:34:22;97497.56;;;0.73;26.88
42727;BME280;28372;56.832;60.658;2023-02-19T08:36:50;97495.53;;;0.61;27.31
42727;BME280;28372;56.832;60.658;2023-02-19T08:39:18;97505.69;;;0.50;27.39
42727;BME280;28372;56.832;60.658;2023-02-19T08:41:47;97497.53;;;0.29;27.72
42727;BME280;28372;56.832;60.658;2023-02-19T08:44:14;97495.31;;;0.13;27.59
42727;BME280;28372;56.832;60.658;2023-02-19T08:46:42;97497.97;;;0.05;28.17
42727;BME280;28372;56.832;60.658;2023-02-19T08:49:09;97492.78;;;-0.09;27.89
42727;BME280;28372;56.832;60.658;2023-02-19T08:51:37;97504.16;;;-0.18;29.09
42727;BME280;28372;56.832;60.658;2023-02-19T08:54:04;97497.25;;;-0.27;28.72
42727;BME280;28372;56.832;60.658;2023-02-19T08:56:32;97493.91;;;-0.42;28.56
42727;BME280;28372;56.832;60.658;2023-02-19T08:58:59;97500.13;;;-0.46;28.86
42727;BME280;28372;56.832;60.658;2023-02-19T09:01:27;97496.66;;;-0.56;29.02
42727;BME280;28372;56.832;60.658;2023-02-19T09:03:55;97493.03;;;-0.60;29.48
42727;BME280;28372;56.832;60.658;2023-02-19T09:06:23;97492.19;;;-0.69;29.73
42727;BME280;28372;56.832;60.658;2023-02-19T09:08:50;97497.28;;;-0.81;29.57
42727;BME280;28372;56.832;60.658;2023-02-19T09:11:18;97492.22;;;-0.92;29.72
42727;BME280;28372;56.832;60.658;2023-02-19T09:13:45;97493.09;;;-1.05;30.08
42727;BME280;28372;56.832;60.658;2023-02-19T09:16:13;97495.38;;;-1.12;30.03
42727;BME280;28372;56.832;60.658;2023-02-19T09:18:40;97490.50;;;-1.19;30.80
42727;BME280;28372;56.832;60.658;2023-02-19T09:21:08;97485.91;;;-1.27;30.12
42727;BME280;28372;56.832;60.658;2023-02-19T09:23:36;97490.66;;;-1.38;30.60
42727;BME280;28372;56.832;60.658;2023-02-19T09:26:05;97484.69;;;-1.44;30.69
42727;BME280;28372;56.832;60.658;2023-02-19T09:28:36;97474.31;;;-1.54;30.98
42727;BME280;28372;56.832;60.658;2023-02-19T09:31:10;97484.72;;;-1.58;31.30
42727;BME280;28372;56.832;60.658;2023-02-19T09:33:46;97489.06;;;-1.62;31.35
42727;BME280;28372;56.832;60.658;2023-02-19T09:36:15;97483.38;;;-1.69;32.00
42727;BME280;28372;56.832;60.658;2023-02-19T09:38:43;97485.00;;;-1.96;32.04
42727;BME280;28372;56.832;60.658;2023-02-19T09:41:19;97482.06;;;-1.94;31.99
42727;BME280;28372;56.832;60.658;2023-02-19T09:43:49;97480.00;;;-2.11;31.85
42727;BME280;28372;56.832;60.658;2023-02-19T09:46:23;97476.16;;;-2.05;32.24
42727;BME280;28372;56.832;60.658;2023-02-19T09:49:40;97482.06;;;-2.08;32.47
42727;BME280;28372;56.832;60.658;2023-02-19T09:51:48;97480.47;;;-1.95;32.60
42727;BME280;28372;56.832;60.658;2023-02-19T09:54:23;97479.63;;;-2.18;32.19
42727;BME280;28372;56.832;60.658;2023-02-19T09:56:54;97479.53;;;-2.41;32.06
42727;BME280;28372;56.832;60.658;2023-02-19T09:59:40;97473.63;;;-2.66;32.71
42727;BME280;28372;56.832;60.658;2023-02-19T10:02:17;97471.25;;;-2.81;32.98
42727;BME280;28372;56.832;60.658;2023-02-19T10:04:47;97478.16;;;-2.99;32.82
42727;BME280;28372;56.832;60.658;2023-02-19T10:07:21;97480.09;;;-3.05;33.02
42727;BME280;28372;56.832;60.658;2023-02-19T10:10:09;97474.81;;;-3.05;32.93
42727;BME280;28372;56.832;60.658;2023-02-19T10:12:45;97468.19;;;-3.21;33.55
42727;BME280;28372;56.832;60.658;2023-02-19T10:15:21;97475.28;;;-3.17;33.78
42727;BME280;28372;56.832;60.658;2023-02-19T10:17:51;97481.59;;;-3.32;33.16
42727;BME280;28372;56.832;60.658;2023-02-19T10:20:21;97473.59;;;-3.46;34.30
42727;BME280;28372;56.832;60.658;2023-02-19T10:23:05;97470.88;;;-3.40;35.11
42727;BME280;28372;56.832;60.658;2023-02-19T10:25:34;97471.72;;;-3.45;34.60
42727;BME280;28372;56.832;60.658;2023-02-19T10:28:02;97465.41;;;-3.63;34.37
42727;BME280;28372;56.832;60.658;2023-02-19T10:30:33;97474.44;;;-3.69;34.63
42727;BME280;28372;56.832;60.658;2023-02-19T10:33:10;97467.09;;;-3.72;34.74
42727;BME280;28372;56.832;60.658;2023-02-19T10:38:46;97470.03;;;-3.74;35.77
42727;BME280;28372;56.832;60.658;2023-02-19T10:41:20;97467.03;;;-3.86;34.99
42727;BME280;28372;56.832;60.658;2023-02-19T10:43:56;97466.66;;;-3.99;35.84
42727;BME280;28372;56.832;60.658;2023-02-19T10:46:30;97467.34;;;-4.12;35.24
42727;BME280;28372;56.832;60.658;2023-02-19T10:52:01;97471.91;;;-4.18;35.96
42727;BME280;28372;56.832;60.658;2023-02-19T10:54:36;97471.91;;;-4.42;35.92
42727;BME280;28372;56.832;60.658;2023-02-19T10:59:56;97475.69;;;-4.48;35.69
42727;BME280;28372;56.832;60.658;2023-02-19T11:02:24;97463.16;;;-4.61;35.79
42727;BME280;28372;56.832;60.658;2023-02-19T11:07:36;97465.03;;;-4.91;36.73
42727;BME280;28372;56.832;60.658;2023-02-19T11:10:05;97466.00;;;-5.11;36.93
42727;BME280;28372;56.832;60.658;2023-02-19T11:12:33;97462.50;;;-5.02;37.08
42727;BME280;28372;56.832;60.658;2023-02-19T11:15:22;97462.97;;;-5.00;37.81
42727;BME280;28372;56.832;60.658;2023-02-19T11:18:06;97449.59;;;-5.03;37.17
42727;BME280;28372;56.832;60.658;2023-02-19T11:21:01;97466.28;;;-5.13;37.36
42727;BME280;28372;56.832;60.658;2023-02-19T11:26:01;97459.38;;;-5.38;37.88
42727;BME280;28372;56.832;60.658;2023-02-19T11:28:32;97450.56;;;-5.63;37.67
42727;BME280;28372;56.832;60.658;2023-02-19T11:31:26;97450.81;;;-5.59;38.59
42727;BME280;28372;56.832;60.658;2023-02-19T11:36:25;97437.72;;;-6.14;38.72
42727;BME280;28372;56.832;60.658;2023-02-19T11:38:58;97444.66;;;-6.34;39.23
42727;BME280;28372;56.832;60.658;2023-02-19T11:49:54;97457.03;;;-6.29;40.33
42727;BME280;28372;56.832;60.658;2023-02-19T11:52:39;97451.81;;;-6.50;40.27
42727;BME280;28372;56.832;60.658;2023-02-19T11:55:20;97457.09;;;-6.55;39.85
42727;BME280;28372;56.832;60.658;2023-02-19T12:00:26;97458.50;;;-6.94;41.23
42727;BME280;28372;56.832;60.658;2023-02-19T12:03:15;97464.00;;;-6.85;41.51
42727;BME280;28372;56.832;60.658;2023-02-19T12:05:55;97432.53;;;-7.31;41.74
42727;BME280;28372;56.832;60.658;2023-02-19T12:20:31;97449.06;;;-7.10;42.38
42727;BME280;28372;56.832;60.658;2023-02-19T12:36:51;97452.88;;;-8.21;44.21
42727;BME280;28372;56.832;60.658;2023-02-19T12:45:19;97462.81;;;-8.38;45.11
42727;BME280;28372;56.832;60.658;2023-02-19T12:48:00;97464.34;;;-8.37;44.92
42727;BME280;28372;56.832;60.658;2023-02-19T12:50:30;97458.59;;;-8.39;43.69
42727;BME280;28372;56.832;60.658;2023-02-19T12:53:22;97463.06;;;-8.35;44.39
42727;BME280;28372;56.832;60.658;2023-02-19T12:55:51;97463.53;;;-8.43;44.00
42727;BME280;28372;56.832;60.658;2023-02-19T12:58:30;97468.31;;;-8.35;44.33
42727;BME280;28372;56.832;60.658;2023-02-19T13:00:59;97456.28;;;-8.84;45.40
42727;BME280;28372;56.832;60.658;2023-02-19T13:03:52;97463.50;;;-8.64;45.46
42727;BME280;28372;56.832;60.658;2023-02-19T13:09:19;97468.66;;;-8.79;44.53
42727;BME280;28372;56.832;60.658;2023-02-19T13:11:56;97458.19;;;-8.79;43.81
42727;BME280;28372;56.832;60.658;2023-02-19T13:14:35;97459.69;;;-9.31;44.31
42727;BME280;28372;56.832;60.658;2023-02-19T13:20:12;97467.81;;;-9.60;45.13
42727;BME280;28372;56.832;60.658;2023-02-19T13:22:46;97468.25;;;-9.68;45.35
42727;BME280;28372;56.832;60.658;2023-02-19T13:25:57;97455.22;;;-9.63;45.09
42727;BME280;28372;56.832;60.658;2023-02-19T13:28:48;97480.91;;;-9.87;45.56
42727;BME280;28372;56.832;60.658;2023-02-19T13:37:10;97462.31;;;-10.40;47.61
42727;BME280;28372;56.832;60.658;2023-02-19T13:39:47;97478.91;;;-10.52;47.72
42727;BME280;28372;56.832;60.658;2023-02-19T13:42:24;97481.22;;;-10.55;47.39
42727;BME280;28372;56.832;60.658;2023-02-19T13:44:53;97473.28;;;-10.60;47.47
42727;BME280;28372;56.832;60.658;2023-02-19T13:50:21;97479.25;;;-11.04;47.97
42727;BME280;28372;56.832;60.658;2023-02-19T13:52:52;97480.81;;;-10.86;47.46
42727;BME280;28372;56.832;60.658;2023-02-19T14:01:17;97488.09;;;-10.88;48.55
42727;BME280;28372;56.832;60.658;2023-02-19T14:03:51;97491.97;;;-10.91;48.20
42727;BME280;28372;56.832;60.658;2023-02-19T14:06:20;97492.75;;;-10.90;47.78
42727;BME280;28372;56.832;60.658;2023-02-19T14:08:56;97491.97;;;-10.91;48.57
42727;BME280;28372;56.832;60.658;2023-02-19T14:14:35;97501.56;;;-11.13;48.83
42727;BME280;28372;56.832;60.658;2023-02-19T14:19:46;97500.13;;;-11.21;47.96
42727;BME280;28372;56.832;60.658;2023-02-19T14:22:47;97488.53;;;-11.30;48.60
42727;BME280;28372;56.832;60.658;2023-02-19T14:33:13;97505.97;;;-11.48;47.84
42727;BME280;28372;56.832;60.658;2023-02-19T14:35:45;97500.56;;;-11.75;48.58
42727;BME280;28372;56.832;60.658;2023-02-19T14:38:29;97497.00;;;-11.69;49.00
42727;BME280;28372;56.832;60.658;2023-02-19T14:40:59;97495.16;;;-12.02;50.18
42727;BME280;28372;56.832;60.658;2023-02-19T14:43:27;97500.66;;;-12.28;52.53
42727;BME280;28372;56.832;60.658;2023-02-19T14:46:03;97503.66;;;-12.07;49.85
42727;BME280;28372;56.832;60.658;2023-02-19T14:48:37;97496.16;;;-12.03;49.82
42727;BME280;28372;56.832;60.658;2023-02-19T14:51:11;97509.50;;;-12.17;49.83
42727;BME280;28372;56.832;60.658;2023-02-19T14:53:42;97490.91;;;-12.20;50.27
42727;BME280;28372;56.832;60.658;2023-02-19T14:56:23;97478.63;;;-12.08;48.23
42727;BME280;28372;56.832;60.658;2023-02-19T15:01:40;97489.16;;;-12.55;50.66
42727;BME280;28372;56.832;60.658;2023-02-19T15:04:20;97490.53;;;-12.41;50.33
42727;BME280;28372;56.832;60.658;2023-02-19T15:06:49;97496.03;;;-12.37;48.97
42727;BME280;28372;56.832;60.658;2023-02-19T15:09:20;97499.47;;;-12.49;50.03
42727;BME280;28372;56.832;60.658;2023-02-19T15:11:48;97502.84;;;-12.36;48.82
42727;BME280;28372;56.832;60.658;2023-02-19T15:14:20;97484.88;;;-12.73;51.29
42727;BME280;28372;56.832;60.658;2023-02-19T15:16:55;97495.41;;;-12.68;50.19
42727;BME280;28372;56.832;60.658;2023-02-19T15:19:24;97480.81;;;-12.69;50.43
42727;BME280;28372;56.832;60.658;2023-02-19T15:21:52;97485.25;;;-12.94;52.04
42727;BME280;28372;56.832;60.658;2023-02-19T15:24:21;97485.59;;;-12.90;51.57